sensor_id;sensor_type;location;lat;lon;timestamp;P1;durP1;ratioP1;P2;durP2;ratioP2
823;SDS011;373;49.342;8.146;2023-06-14T00:01:13;3.97;;;3.58;;
823;SDS011;373;49.342;8.146;2023-06-14T00:03:41;4.25;;;3.92;;
823;SDS011;373;49.342;8.146;2023-06-14T00:06:08;3.97;;;3.53;;
823;SDS011;373;49.342;8.146;2023-06-14T00:08:35;3.65;;;3.35;;
823;SDS011;373;49.342;8.146;2023-06-14T00:11:02;4.05;;;3.70;;
823;SDS011;373;49.342;8.146;2023-06-14T00:13:29;4.20;;;3.35;;
823;SDS011;373;49.342;8.146;2023-06-14T00:15:58;3.85;;;3.55;;
823;SDS011;373;49.342;8.146;2023-06-14T00:18:25;4.28;;;3.17;;
823;SDS011;373;49.342;8.146;2023-06-14T00:20:56;4.75;;;3.78;;
823;SDS011;373;49.342;8.146;2023-06-14T00:23:23;4.07;;;3.67;;
823;SDS011;373;49.342;8.146;2023-06-14T00:25:50;3.92;;;3.63;;
823;SDS011;373;49.342;8.146;2023-06-14T00:28:17;3.67;;;3.38;;
823;SDS011;373;49.342;8.146;2023-06-14T00:30:45;3.95;;;3.50;;
823;SDS011;373;49.342;8.146;2023-06-14T00:33:14;3.85;;;3.55;;
823;SDS011;373;49.342;8.146;2023-06-14T00:35:42;4.28;;;3.88;;
823;SDS011;373;49.342;8.146;2023-06-14T00:38:12;4.45;;;3.50;;
823;SDS011;373;49.342;8.146;2023-06-14T00:40:40;4.13;;;3.50;;
823;SDS011;373;49.342;8.146;2023-06-14T00:43:07;3.33;;;3.13;;
823;SDS011;373;49.342;8.146;2023-06-14T00:45:35;4.28;;;3.88;;
823;SDS011;373;49.342;8.146;2023-06-14T00:48:02;5.05;;;3.70;;
823;SDS011;373;49.342;8.146;2023-06-14T00:50:32;3.58;;;3.28;;
823;SDS011;373;49.342;8.146;2023-06-14T00:53:01;4.15;;;3.85;;
823;SDS011;373;49.342;8.146;2023-06-14T00:55:28;4.63;;;4.18;;
823;SDS011;373;49.342;8.146;2023-06-14T00:57:58;4.05;;;3.72;;
823;SDS011;373;49.342;8.146;2023-06-14T01:00:25;4.15;;;3.85;;
823;SDS011;373;49.342;8.146;2023-06-14T01:02:54;3.85;;;3.38;;
823;SDS011;373;49.342;8.146;2023-06-14T01:05:22;4.53;;;4.13;;
823;SDS011;373;49.342;8.146;2023-06-14T01:07:58;3.80;;;3.42;;
823;SDS011;373;49.342;8.146;2023-06-14T01:10:38;4.28;;;3.80;;
823;SDS011;373;49.342;8.146;2023-06-14T01:13:17;4.38;;;3.83;;
823;SDS011;373;49.342;8.146;2023-06-14T01:15:48;4.05;;;3.63;;
823;SDS011;373;49.342;8.146;2023-06-14T01:18:16;3.78;;;3.47;;
823;SDS011;373;49.342;8.146;2023-06-14T01:20:44;4.22;;;3.83;;
823;SDS011;373;49.342;8.146;2023-06-14T01:23:16;3.65;;;3.35;;
823;SDS011;373;49.342;8.146;2023-06-14T01:25:43;5.30;;;3.40;;
823;SDS011;373;49.342;8.146;2023-06-14T01:28:11;4.68;;;3.67;;
823;SDS011;373;49.342;8.146;2023-06-14T01:30:40;3.85;;;3.53;;
823;SDS011;373;49.342;8.146;2023-06-14T01:33:10;4.93;;;4.20;;
823;SDS011;373;49.342;8.146;2023-06-14T01:35:38;4.38;;;3.85;;
823;SDS011;373;49.342;8.146;2023-06-14T01:38:06;3.80;;;3.50;;
823;SDS011;373;49.342;8.146;2023-06-14T01:40:35;3.88;;;3.58;;
823;SDS011;373;49.342;8.146;2023-06-14T01:43:03;3.50;;;3.30;;
823;SDS011;373;49.342;8.146;2023-06-14T01:45:32;4.72;;;3.70;;
823;SDS011;373;49.342;8.146;2023-06-14T01:48:00;4.40;;;4.10;;
823;SDS011;373;49.342;8.146;2023-06-14T01:50:28;4.13;;;3.83;;
823;SDS011;373;49.342;8.146;2023-06-14T01:52:56;3.65;;;3.40;;
823;SDS011;373;49.342;8.146;2023-06-14T01:55:23;4.18;;;3.88;;
823;SDS011;373;49.342;8.146;2023-06-14T01:57:52;4.20;;;3.78;;
823;SDS011;373;49.342;8.146;2023-06-14T02:00:20;5.38;;;3.95;;
823;SDS011;373;49.342;8.146;2023-06-14T02:02:47;4.78;;;4.25;;
823;SDS011;373;49.342;8.146;2023-06-14T02:05:15;4.32;;;3.92;;
823;SDS011;373;49.342;8.146;2023-06-14T02:07:44;5.80;;;4.63;;
823;SDS011;373;49.342;8.146;2023-06-14T02:10:14;4.50;;;3.83;;
823;SDS011;373;49.342;8.146;2023-06-14T02:12:42;4.88;;;4.43;;
823;SDS011;373;49.342;8.146;2023-06-14T02:15:11;4.85;;;4.28;;
823;SDS011;373;49.342;8.146;2023-06-14T02:17:42;4.97;;;4.57;;
823;SDS011;373;49.342;8.146;2023-06-14T02:20:09;5.65;;;4.35;;
823;SDS011;373;49.342;8.146;2023-06-14T02:22:37;4.55;;;4.15;;
823;SDS011;373;49.342;8.146;2023-06-14T02:25:06;5.30;;;4.22;;
823;SDS011;373;49.342;8.146;2023-06-14T02:27:34;4.63;;;4.22;;
823;SDS011;373;49.342;8.146;2023-06-14T02:30:03;5.57;;;4.22;;
823;SDS011;373;49.342;8.146;2023-06-14T02:32:33;5.53;;;4.60;;
823;SDS011;373;49.342;8.146;2023-06-14T02:35:00;4.00;;;3.70;;
823;SDS011;373;49.342;8.146;2023-06-14T02:37:28;4.50;;;4.13;;
823;SDS011;373;49.342;8.146;2023-06-14T02:39:55;4.32;;;4.03;;
823;SDS011;373;49.342;8.146;2023-06-14T02:42:22;4.70;;;4.35;;
823;SDS011;373;49.342;8.146;2023-06-14T02:44:50;4.57;;;4.18;;
823;SDS011;373;49.342;8.146;2023-06-14T02:47:17;4.03;;;3.70;;
823;SDS011;373;49.342;8.146;2023-06-14T02:49:45;5.38;;;4.43;;
823;SDS011;373;49.342;8.146;2023-06-14T02:52:14;4.45;;;4.05;;
823;SDS011;373;49.342;8.146;2023-06-14T02:54:41;4.25;;;3.95;;
823;SDS011;373;49.342;8.146;2023-06-14T02:57:09;5.10;;;4.57;;
823;SDS011;373;49.342;8.146;2023-06-14T02:59:37;6.35;;;4.35;;
823;SDS011;373;49.342;8.146;2023-06-14T03:02:05;4.05;;;3.75;;
823;SDS011;373;49.342;8.146;2023-06-14T03:04:33;5.38;;;4.28;;
823;SDS011;373;49.342;8.146;2023-06-14T03:07:05;3.85;;;3.55;;
823;SDS011;373;49.342;8.146;2023-06-14T03:09:35;4.45;;;4.05;;
823;SDS011;373;49.342;8.146;2023-06-14T03:12:04;5.22;;;3.97;;
823;SDS011;373;49.342;8.146;2023-06-14T03:14:33;5.18;;;4.00;;
823;SDS011;373;49.342;8.146;2023-06-14T03:17:02;4.43;;;4.03;;
823;SDS011;373;49.342;8.146;2023-06-14T03:19:31;4.88;;;4.30;;
823;SDS011;373;49.342;8.146;2023-06-14T03:21:58;5.00;;;4.60;;
823;SDS011;373;49.342;8.146;2023-06-14T03:24:29;6.40;;;4.30;;
823;SDS011;373;49.342;8.146;2023-06-14T03:26:58;5.03;;;4.53;;
823;SDS011;373;49.342;8.146;2023-06-14T03:29:27;5.05;;;4.65;;
823;SDS011;373;49.342;8.146;2023-06-14T03:31:59;4.63;;;4.22;;
823;SDS011;373;49.342;8.146;2023-06-14T03:34:34;4.28;;;3.92;;
823;SDS011;373;49.342;8.146;2023-06-14T03:37:04;5.90;;;4.25;;
823;SDS011;373;49.342;8.146;2023-06-14T03:39:33;3.95;;;3.65;;
823;SDS011;373;49.342;8.146;2023-06-14T03:42:01;6.07;;;4.80;;
823;SDS011;373;49.342;8.146;2023-06-14T03:44:28;4.53;;;4.13;;
823;SDS011;373;49.342;8.146;2023-06-14T03:46:55;5.32;;;4.30;;
823;SDS011;373;49.342;8.146;2023-06-14T03:49:23;6.05;;;4.38;;
823;SDS011;373;49.342;8.146;2023-06-14T03:51:51;4.72;;;4.25;;
823;SDS011;373;49.342;8.146;2023-06-14T03:54:20;4.65;;;4.28;;
823;SDS011;373;49.342;8.146;2023-06-14T03:56:51;4.00;;;3.70;;
823;SDS011;373;49.342;8.146;2023-06-14T03:59:18;4.57;;;3.92;;
823;SDS011;373;49.342;8.146;2023-06-14T04:01:45;4.60;;;4.20;;
823;SDS011;373;49.342;8.146;2023-06-14T04:04:14;4.63;;;4.25;;
823;SDS011;373;49.342;8.146;2023-06-14T04:06:42;6.28;;;4.50;;
823;SDS011;373;49.342;8.146;2023-06-14T04:09:10;4.85;;;4.43;;
823;SDS011;373;49.342;8.146;2023-06-14T04:11:37;4.88;;;4.35;;
823;SDS011;373;49.342;8.146;2023-06-14T04:14:06;4.57;;;4.18;;
823;SDS011;373;49.342;8.146;2023-06-14T04:16:33;5.15;;;4.65;;
823;SDS011;373;49.342;8.146;2023-06-14T04:19:00;4.53;;;4.13;;
823;SDS011;373;49.342;8.146;2023-06-14T04:21:28;4.35;;;4.05;;
823;SDS011;373;49.342;8.146;2023-06-14T04:23:57;4.43;;;4.13;;
823;SDS011;373;49.342;8.146;2023-06-14T04:26:28;4.70;;;4.30;;
823;SDS011;373;49.342;8.146;2023-06-14T04:28:59;5.38;;;4.80;;
823;SDS011;373;49.342;8.146;2023-06-14T04:31:30;4.55;;;4.15;;
823;SDS011;373;49.342;8.146;2023-06-14T04:33:59;4.90;;;4.50;;
823;SDS011;373;49.342;8.146;2023-06-14T04:36:26;4.82;;;4.40;;
823;SDS011;373;49.342;8.146;2023-06-14T04:38:54;4.90;;;4.50;;
823;SDS011;373;49.342;8.146;2023-06-14T04:41:25;4.05;;;3.75;;
823;SDS011;373;49.342;8.146;2023-06-14T04:43:56;5.30;;;4.80;;
823;SDS011;373;49.342;8.146;2023-06-14T04:46:28;5.75;;;4.85;;
823;SDS011;373;49.342;8.146;2023-06-14T04:48:57;5.60;;;4.45;;
823;SDS011;373;49.342;8.146;2023-06-14T04:51:27;4.90;;;4.40;;
823;SDS011;373;49.342;8.146;2023-06-14T04:53:57;4.88;;;4.28;;
823;SDS011;373;49.342;8.146;2023-06-14T04:56:26;5.53;;;4.30;;
823;SDS011;373;49.342;8.146;2023-06-14T04:58:54;5.55;;;4.45;;
823;SDS011;373;49.342;8.146;2023-06-14T05:01:22;6.18;;;4.43;;
823;SDS011;373;49.342;8.146;2023-06-14T05:03:51;4.97;;;4.57;;
823;SDS011;373;49.342;8.146;2023-06-14T05:06:18;3.92;;;3.67;;
823;SDS011;373;49.342;8.146;2023-06-14T05:09:16;5.20;;;4.68;;
823;SDS011;373;49.342;8.146;2023-06-14T05:12:08;4.55;;;4.15;;
823;SDS011;373;49.342;8.146;2023-06-14T05:14:38;5.00;;;4.40;;
823;SDS011;373;49.342;8.146;2023-06-14T05:17:22;4.68;;;4.28;;
823;SDS011;373;49.342;8.146;2023-06-14T05:19:54;6.43;;;4.20;;
823;SDS011;373;49.342;8.146;2023-06-14T05:25:46;4.30;;;3.95;;
823;SDS011;373;49.342;8.146;2023-06-14T05:31:39;6.30;;;4.50;;
823;SDS011;373;49.342;8.146;2023-06-14T05:34:13;5.57;;;4.47;;
823;SDS011;373;49.342;8.146;2023-06-14T05:36:49;4.20;;;3.90;;
823;SDS011;373;49.342;8.146;2023-06-14T05:39:16;4.60;;;4.15;;
823;SDS011;373;49.342;8.146;2023-06-14T05:41:46;4.50;;;4.13;;
823;SDS011;373;49.342;8.146;2023-06-14T05:44:13;4.68;;;4.22;;
823;SDS011;373;49.342;8.146;2023-06-14T05:46:41;4.60;;;4.20;;
823;SDS011;373;49.342;8.146;2023-06-14T05:49:12;5.05;;;4.55;;
823;SDS011;373;49.342;8.146;2023-06-14T05:51:39;4.80;;;4.40;;
823;SDS011;373;49.342;8.146;2023-06-14T05:54:08;4.57;;;4.18;;
823;SDS011;373;49.342;8.146;2023-06-14T05:56:35;4.72;;;4.32;;
823;SDS011;373;49.342;8.146;2023-06-14T05:59:06;11.23;;;4.10;;
823;SDS011;373;49.342;8.146;2023-06-14T06:01:33;4.53;;;4.15;;
823;SDS011;373;49.342;8.146;2023-06-14T06:04:01;4.45;;;4.05;;
823;SDS011;373;49.342;8.146;2023-06-14T06:06:29;4.40;;;3.88;;
823;SDS011;373;49.342;8.146;2023-06-14T06:08:58;5.15;;;3.90;;
823;SDS011;373;49.342;8.146;2023-06-14T06:11:34;3.75;;;3.45;;
823;SDS011;373;49.342;8.146;2023-06-14T06:14:01;5.18;;;4.18;;
823;SDS011;373;49.342;8.146;2023-06-14T06:16:28;6.32;;;4.18;;
823;SDS011;373;49.342;8.146;2023-06-14T06:19:05;6.53;;;4.38;;
823;SDS011;373;49.342;8.146;2023-06-14T06:21:34;4.28;;;3.88;;
823;SDS011;373;49.342;8.146;2023-06-14T06:32:30;4.47;;;4.07;;
823;SDS011;373;49.342;8.146;2023-06-14T06:38:33;4.65;;;4.25;;
823;SDS011;373;49.342;8.146;2023-06-14T06:41:14;8.85;;;3.53;;
823;SDS011;373;49.342;8.146;2023-06-14T06:44:51;4.57;;;4.28;;
823;SDS011;373;49.342;8.146;2023-06-14T06:46:49;5.30;;;3.65;;
823;SDS011;373;49.342;8.146;2023-06-14T06:52:42;4.80;;;3.60;;
823;SDS011;373;49.342;8.146;2023-06-14T06:55:13;4.35;;;3.88;;
823;SDS011;373;49.342;8.146;2023-06-14T06:57:56;4.70;;;4.30;;
823;SDS011;373;49.342;8.146;2023-06-14T07:00:25;5.90;;;4.05;;
823;SDS011;373;49.342;8.146;2023-06-14T07:02:52;5.57;;;3.40;;
823;SDS011;373;49.342;8.146;2023-06-14T07:05:20;4.00;;;3.58;;
823;SDS011;373;49.342;8.146;2023-06-14T07:07:53;4.00;;;3.70;;
823;SDS011;373;49.342;8.146;2023-06-14T07:10:30;5.72;;;3.95;;
823;SDS011;373;49.342;8.146;2023-06-14T07:12:58;4.30;;;3.75;;
823;SDS011;373;49.342;8.146;2023-06-14T07:15:45;4.30;;;3.78;;
823;SDS011;373;49.342;8.146;2023-06-14T07:18:13;4.55;;;3.72;;
823;SDS011;373;49.342;8.146;2023-06-14T07:20:40;6.53;;;4.38;;
823;SDS011;373;49.342;8.146;2023-06-14T07:23:09;4.43;;;3.95;;
823;SDS011;373;49.342;8.146;2023-06-14T07:25:37;4.55;;;3.75;;
823;SDS011;373;49.342;8.146;2023-06-14T07:28:08;4.40;;;3.88;;
823;SDS011;373;49.342;8.146;2023-06-14T07:30:46;4.05;;;3.65;;
823;SDS011;373;49.342;8.146;2023-06-14T07:33:14;5.18;;;3.72;;
823;SDS011;373;49.342;8.146;2023-06-14T07:35:41;4.60;;;3.58;;
823;SDS011;373;49.342;8.146;2023-06-14T07:38:10;3.90;;;3.60;;
823;SDS011;373;49.342;8.146;2023-06-14T07:40:37;7.60;;;4.30;;
823;SDS011;373;49.342;8.146;2023-06-14T07:43:04;4.15;;;3.85;;
823;SDS011;373;49.342;8.146;2023-06-14T07:45:31;6.05;;;3.95;;
823;SDS011;373;49.342;8.146;2023-06-14T07:47:58;5.00;;;4.38;;
823;SDS011;373;49.342;8.146;2023-06-14T07:50:28;4.90;;;4.10;;
823;SDS011;373;49.342;8.146;2023-06-14T07:52:56;5.30;;;4.05;;
823;SDS011;373;49.342;8.146;2023-06-14T07:55:24;4.32;;;4.03;;
823;SDS011;373;49.342;8.146;2023-06-14T07:57:54;4.35;;;3.95;;
823;SDS011;373;49.342;8.146;2023-06-14T08:00:21;5.18;;;4.18;;
823;SDS011;373;49.342;8.146;2023-06-14T08:02:49;5.10;;;4.30;;
823;SDS011;373;49.342;8.146;2023-06-14T08:05:17;5.07;;;4.47;;
823;SDS011;373;49.342;8.146;2023-06-14T08:07:44;10.48;;;4.32;;
823;SDS011;373;49.342;8.146;2023-06-14T08:10:11;4.45;;;4.05;;
823;SDS011;373;49.342;8.146;2023-06-14T08:12:40;4.05;;;3.75;;
823;SDS011;373;49.342;8.146;2023-06-14T08:15:08;6.75;;;4.13;;
823;SDS011;373;49.342;8.146;2023-06-14T08:17:36;4.57;;;4.18;;
823;SDS011;373;49.342;8.146;2023-06-14T08:20:03;4.45;;;4.05;;
823;SDS011;373;49.342;8.146;2023-06-14T08:22:41;4.40;;;4.00;;
823;SDS011;373;49.342;8.146;2023-06-14T08:25:08;4.53;;;4.13;;
823;SDS011;373;49.342;8.146;2023-06-14T08:27:38;4.40;;;3.67;;
823;SDS011;373;49.342;8.146;2023-06-14T08:30:08;4.05;;;3.72;;
823;SDS011;373;49.342;8.146;2023-06-14T08:32:42;5.00;;;4.35;;
823;SDS011;373;49.342;8.146;2023-06-14T08:35:09;4.80;;;4.38;;
823;SDS011;373;49.342;8.146;2023-06-14T08:37:46;5.32;;;3.88;;
823;SDS011;373;49.342;8.146;2023-06-14T08:45:51;5.45;;;3.78;;
823;SDS011;373;49.342;8.146;2023-06-14T08:48:33;4.43;;;3.95;;
823;SDS011;373;49.342;8.146;2023-06-14T08:51:01;4.57;;;3.90;;
823;SDS011;373;49.342;8.146;2023-06-14T08:53:32;4.80;;;4.07;;
823;SDS011;373;49.342;8.146;2023-06-14T08:56:01;4.55;;;3.40;;
823;SDS011;373;49.342;8.146;2023-06-14T08:58:50;4.65;;;3.97;;
823;SDS011;373;49.342;8.146;2023-06-14T09:01:26;4.25;;;3.88;;
823;SDS011;373;49.342;8.146;2023-06-14T09:04:12;4.07;;;3.78;;
823;SDS011;373;49.342;8.146;2023-06-14T09:06:39;4.50;;;4.00;;
823;SDS011;373;49.342;8.146;2023-06-14T09:09:27;3.40;;;3.10;;
823;SDS011;373;49.342;8.146;2023-06-14T09:12:09;3.55;;;3.25;;
823;SDS011;373;49.342;8.146;2023-06-14T09:15:16;4.10;;;3.80;;
823;SDS011;373;49.342;8.146;2023-06-14T09:18:00;5.10;;;3.33;;
823;SDS011;373;49.342;8.146;2023-06-14T09:20:31;3.97;;;3.67;;
823;SDS011;373;49.342;8.146;2023-06-14T09:23:12;4.57;;;3.72;;
823;SDS011;373;49.342;8.146;2023-06-14T09:25:47;4.20;;;3.72;;
823;SDS011;373;49.342;8.146;2023-06-14T09:28:14;4.90;;;3.17;;
823;SDS011;373;49.342;8.146;2023-06-14T09:30:44;3.25;;;2.95;;
823;SDS011;373;49.342;8.146;2023-06-14T09:33:16;3.75;;;3.40;;
823;SDS011;373;49.342;8.146;2023-06-14T09:35:46;4.97;;;3.65;;
823;SDS011;373;49.342;8.146;2023-06-14T09:38:17;3.30;;;3.00;;
823;SDS011;373;49.342;8.146;2023-06-14T09:40:45;5.00;;;3.22;;
823;SDS011;373;49.342;8.146;2023-06-14T09:43:12;5.30;;;2.90;;
823;SDS011;373;49.342;8.146;2023-06-14T09:45:40;3.75;;;3.03;;
823;SDS011;373;49.342;8.146;2023-06-14T09:48:12;3.55;;;3.13;;
823;SDS011;373;49.342;8.146;2023-06-14T09:50:47;5.82;;;3.35;;
823;SDS011;373;49.342;8.146;2023-06-14T09:53:17;5.38;;;3.50;;
823;SDS011;373;49.342;8.146;2023-06-14T09:55:49;3.75;;;2.55;;
823;SDS011;373;49.342;8.146;2023-06-14T09:58:19;3.10;;;2.80;;
823;SDS011;373;49.342;8.146;2023-06-14T10:00:50;2.97;;;2.67;;
823;SDS011;373;49.342;8.146;2023-06-14T10:03:24;3.53;;;3.10;;
823;SDS011;373;49.342;8.146;2023-06-14T10:05:59;3.55;;;3.25;;
823;SDS011;373;49.342;8.146;2023-06-14T10:08:53;4.97;;;2.65;;
823;SDS011;373;49.342;8.146;2023-06-14T10:11:28;3.40;;;3.10;;
823;SDS011;373;49.342;8.146;2023-06-14T10:14:07;3.28;;;2.47;;
823;SDS011;373;49.342;8.146;2023-06-14T10:16:39;3.60;;;2.70;;
823;SDS011;373;49.342;8.146;2023-06-14T10:19:21;2.90;;;2.70;;
823;SDS011;373;49.342;8.146;2023-06-14T10:21:57;4.40;;;2.65;;
823;SDS011;373;49.342;8.146;2023-06-14T10:24:29;3.00;;;2.20;;
823;SDS011;373;49.342;8.146;2023-06-14T10:27:11;4.22;;;2.78;;
823;SDS011;373;49.342;8.146;2023-06-14T10:35:40;3.15;;;2.85;;
823;SDS011;373;49.342;8.146;2023-06-14T10:38:08;2.75;;;2.47;;
823;SDS011;373;49.342;8.146;2023-06-14T10:40:36;3.00;;;2.80;;
823;SDS011;373;49.342;8.146;2023-06-14T10:43:20;2.80;;;2.50;;
823;SDS011;373;49.342;8.146;2023-06-14T10:48:40;4.70;;;2.83;;
823;SDS011;373;49.342;8.146;2023-06-14T10:51:16;4.30;;;2.70;;
823;SDS011;373;49.342;8.146;2023-06-14T10:53:47;2.92;;;2.72;;
823;SDS011;373;49.342;8.146;2023-06-14T10:56:31;2.85;;;2.22;;
823;SDS011;373;49.342;8.146;2023-06-14T10:59:00;2.95;;;2.42;;
823;SDS011;373;49.342;8.146;2023-06-14T11:01:36;5.30;;;2.50;;
823;SDS011;373;49.342;8.146;2023-06-14T11:04:10;3.17;;;2.22;;
823;SDS011;373;49.342;8.146;2023-06-14T11:06:45;3.08;;;2.30;;
823;SDS011;373;49.342;8.146;2023-06-14T11:12:37;2.78;;;2.47;;
823;SDS011;373;49.342;8.146;2023-06-14T11:15:08;2.47;;;2.28;;
823;SDS011;373;49.342;8.146;2023-06-14T11:17:49;4.78;;;2.58;;
823;SDS011;373;49.342;8.146;2023-06-14T11:20:19;3.45;;;2.50;;
823;SDS011;373;49.342;8.146;2023-06-14T11:22:53;2.58;;;2.40;;
823;SDS011;373;49.342;8.146;2023-06-14T11:25:21;2.38;;;2.17;;
823;SDS011;373;49.342;8.146;2023-06-14T11:27:49;2.47;;;2.28;;
823;SDS011;373;49.342;8.146;2023-06-14T11:30:17;4.00;;;2.05;;
823;SDS011;373;49.342;8.146;2023-06-14T11:32:45;4.60;;;2.38;;
823;SDS011;373;49.342;8.146;2023-06-14T11:35:14;2.50;;;2.30;;
823;SDS011;373;49.342;8.146;2023-06-14T11:37:42;3.97;;;2.90;;
823;SDS011;373;49.342;8.146;2023-06-14T11:40:12;2.75;;;1.83;;
823;SDS011;373;49.342;8.146;2023-06-14T11:42:40;2.50;;;1.90;;
823;SDS011;373;49.342;8.146;2023-06-14T11:45:09;2.20;;;2.10;;
823;SDS011;373;49.342;8.146;2023-06-14T11:47:38;2.65;;;2.45;;
823;SDS011;373;49.342;8.146;2023-06-14T11:50:06;3.00;;;2.10;;
823;SDS011;373;49.342;8.146;2023-06-14T11:52:35;2.83;;;2.60;;
823;SDS011;373;49.342;8.146;2023-06-14T11:55:04;3.50;;;2.40;;
823;SDS011;373;49.342;8.146;2023-06-14T11:57:35;3.90;;;2.58;;
823;SDS011;373;49.342;8.146;2023-06-14T12:00:04;3.55;;;2.35;;
823;SDS011;373;49.342;8.146;2023-06-14T12:02:37;2.15;;;1.85;;
823;SDS011;373;49.342;8.146;2023-06-14T12:05:05;2.13;;;2.00;;
823;SDS011;373;49.342;8.146;2023-06-14T12:07:35;2.47;;;2.28;;
823;SDS011;373;49.342;8.146;2023-06-14T12:10:06;3.20;;;2.90;;
823;SDS011;373;49.342;8.146;2023-06-14T12:12:36;2.05;;;1.73;;
823;SDS011;373;49.342;8.146;2023-06-14T12:15:05;2.55;;;2.35;;
823;SDS011;373;49.342;8.146;2023-06-14T12:17:33;2.88;;;2.30;;
823;SDS011;373;49.342;8.146;2023-06-14T12:20:05;2.42;;;2.13;;
823;SDS011;373;49.342;8.146;2023-06-14T12:22:39;2.28;;;2.13;;
823;SDS011;373;49.342;8.146;2023-06-14T12:25:22;2.78;;;2.58;;
823;SDS011;373;49.342;8.146;2023-06-14T12:27:54;2.90;;;2.30;;
823;SDS011;373;49.342;8.146;2023-06-14T12:30:39;2.28;;;2.13;;
823;SDS011;373;49.342;8.146;2023-06-14T12:41:16;2.40;;;2.20;;
823;SDS011;373;49.342;8.146;2023-06-14T12:44:11;2.60;;;2.40;;
823;SDS011;373;49.342;8.146;2023-06-14T12:50:33;3.50;;;2.50;;
823;SDS011;373;49.342;8.146;2023-06-14T12:53:00;2.08;;;1.98;;
823;SDS011;373;49.342;8.146;2023-06-14T12:55:27;3.45;;;2.60;;
823;SDS011;373;49.342;8.146;2023-06-14T12:57:55;2.88;;;2.47;;
823;SDS011;373;49.342;8.146;2023-06-14T13:00:23;2.50;;;2.38;;
823;SDS011;373;49.342;8.146;2023-06-14T13:02:52;4.75;;;2.97;;
823;SDS011;373;49.342;8.146;2023-06-14T13:05:19;2.70;;;2.17;;
823;SDS011;373;49.342;8.146;2023-06-14T13:07:47;3.40;;;2.58;;
823;SDS011;373;49.342;8.146;2023-06-14T13:10:14;3.85;;;2.80;;
823;SDS011;373;49.342;8.146;2023-06-14T13:12:42;5.07;;;2.80;;
823;SDS011;373;49.342;8.146;2023-06-14T13:15:10;2.60;;;2.50;;
823;SDS011;373;49.342;8.146;2023-06-14T13:17:41;3.60;;;2.60;;
823;SDS011;373;49.342;8.146;2023-06-14T13:20:15;2.20;;;2.10;;
823;SDS011;373;49.342;8.146;2023-06-14T13:22:46;3.38;;;2.42;;
823;SDS011;373;49.342;8.146;2023-06-14T13:25:15;2.70;;;2.50;;
823;SDS011;373;49.342;8.146;2023-06-14T13:27:42;2.67;;;2.47;;
823;SDS011;373;49.342;8.146;2023-06-14T13:30:10;3.78;;;2.38;;
823;SDS011;373;49.342;8.146;2023-06-14T13:32:38;2.92;;;2.65;;
823;SDS011;373;49.342;8.146;2023-06-14T13:35:07;3.30;;;3.00;;
823;SDS011;373;49.342;8.146;2023-06-14T13:37:35;2.95;;;2.45;;
823;SDS011;373;49.342;8.146;2023-06-14T13:40:02;2.60;;;2.40;;
823;SDS011;373;49.342;8.146;2023-06-14T13:42:31;2.85;;;2.65;;
823;SDS011;373;49.342;8.146;2023-06-14T13:44:59;3.38;;;2.80;;
823;SDS011;373;49.342;8.146;2023-06-14T13:47:27;3.35;;;2.75;;
823;SDS011;373;49.342;8.146;2023-06-14T13:49:54;3.30;;;2.97;;
823;SDS011;373;49.342;8.146;2023-06-14T13:52:23;3.10;;;2.90;;
823;SDS011;373;49.342;8.146;2023-06-14T13:54:50;3.30;;;2.80;;
823;SDS011;373;49.342;8.146;2023-06-14T13:57:17;3.88;;;2.95;;
823;SDS011;373;49.342;8.146;2023-06-14T13:59:45;4.03;;;2.78;;
823;SDS011;373;49.342;8.146;2023-06-14T14:02:12;3.75;;;2.97;;
823;SDS011;373;49.342;8.146;2023-06-14T14:04:40;5.75;;;3.60;;
823;SDS011;373;49.342;8.146;2023-06-14T14:07:07;3.38;;;2.70;;
823;SDS011;373;49.342;8.146;2023-06-14T14:09:36;2.83;;;2.45;;
823;SDS011;373;49.342;8.146;2023-06-14T14:12:05;3.20;;;2.95;;
823;SDS011;373;49.342;8.146;2023-06-14T14:14:32;3.97;;;2.53;;
823;SDS011;373;49.342;8.146;2023-06-14T14:16:59;3.05;;;2.85;;
823;SDS011;373;49.342;8.146;2023-06-14T14:19:26;3.53;;;2.65;;
823;SDS011;373;49.342;8.146;2023-06-14T14:21:54;3.17;;;2.70;;
823;SDS011;373;49.342;8.146;2023-06-14T14:24:21;3.42;;;3.20;;
823;SDS011;373;49.342;8.146;2023-06-14T14:26:49;3.35;;;3.15;;
823;SDS011;373;49.342;8.146;2023-06-14T14:29:19;2.78;;;2.58;;
823;SDS011;373;49.342;8.146;2023-06-14T14:31:46;3.05;;;2.85;;
823;SDS011;373;49.342;8.146;2023-06-14T14:34:14;3.10;;;2.80;;
823;SDS011;373;49.342;8.146;2023-06-14T14:36:41;3.38;;;2.85;;
823;SDS011;373;49.342;8.146;2023-06-14T14:39:09;2.83;;;2.63;;
823;SDS011;373;49.342;8.146;2023-06-14T14:41:36;4.90;;;3.20;;
823;SDS011;373;49.342;8.146;2023-06-14T14:44:06;3.20;;;2.50;;
823;SDS011;373;49.342;8.146;2023-06-14T14:46:34;3.45;;;3.08;;
823;SDS011;373;49.342;8.146;2023-06-14T14:49:01;4.43;;;2.80;;
823;SDS011;373;49.342;8.146;2023-06-14T14:51:28;3.75;;;2.92;;
823;SDS011;373;49.342;8.146;2023-06-14T14:53:55;3.10;;;2.78;;
823;SDS011;373;49.342;8.146;2023-06-14T14:56:22;3.38;;;2.65;;
823;SDS011;373;49.342;8.146;2023-06-14T14:58:49;3.13;;;2.83;;
823;SDS011;373;49.342;8.146;2023-06-14T15:01:17;3.60;;;3.20;;
823;SDS011;373;49.342;8.146;2023-06-14T15:03:45;4.32;;;2.70;;
823;SDS011;373;49.342;8.146;2023-06-14T15:06:12;2.72;;;2.53;;
823;SDS011;373;49.342;8.146;2023-06-14T15:08:39;3.08;;;2.75;;
823;SDS011;373;49.342;8.146;2023-06-14T15:11:06;3.20;;;2.65;;
823;SDS011;373;49.342;8.146;2023-06-14T15:13:33;3.38;;;3.00;;
823;SDS011;373;49.342;8.146;2023-06-14T15:16:00;3.03;;;2.83;;
823;SDS011;373;49.342;8.146;2023-06-14T15:18:28;2.75;;;2.58;;
823;SDS011;373;49.342;8.146;2023-06-14T15:20:56;3.20;;;2.90;;
823;SDS011;373;49.342;8.146;2023-06-14T15:23:23;2.85;;;2.58;;
823;SDS011;373;49.342;8.146;2023-06-14T15:25:50;3.22;;;2.70;;
823;SDS011;373;49.342;8.146;2023-06-14T15:28:17;3.63;;;2.60;;
823;SDS011;373;49.342;8.146;2023-06-14T15:30:44;4.25;;;2.60;;
823;SDS011;373;49.342;8.146;2023-06-14T15:33:11;3.30;;;3.00;;
823;SDS011;373;49.342;8.146;2023-06-14T15:35:40;4.15;;;2.97;;
823;SDS011;373;49.342;8.146;2023-06-14T15:38:07;5.32;;;2.60;;
823;SDS011;373;49.342;8.146;2023-06-14T15:40:34;3.47;;;3.13;;
823;SDS011;373;49.342;8.146;2023-06-14T15:43:01;5.95;;;2.67;;
823;SDS011;373;49.342;8.146;2023-06-14T15:45:28;2.97;;;2.70;;
823;SDS011;373;49.342;8.146;2023-06-14T15:47:56;2.80;;;2.60;;
823;SDS011;373;49.342;8.146;2023-06-14T15:50:25;4.05;;;2.83;;
823;SDS011;373;49.342;8.146;2023-06-14T15:52:54;2.92;;;2.72;;
823;SDS011;373;49.342;8.146;2023-06-14T15:55:21;5.43;;;2.67;;
823;SDS011;373;49.342;8.146;2023-06-14T15:57:48;3.25;;;2.80;;
823;SDS011;373;49.342;8.146;2023-06-14T16:00:16;3.33;;;2.47;;
823;SDS011;373;49.342;8.146;2023-06-14T16:02:43;2.95;;;2.63;;
823;SDS011;373;49.342;8.146;2023-06-14T16:05:11;3.72;;;2.80;;
823;SDS011;373;49.342;8.146;2023-06-14T16:07:38;3.38;;;2.72;;
823;SDS011;373;49.342;8.146;2023-06-14T16:10:07;3.30;;;3.00;;
823;SDS011;373;49.342;8.146;2023-06-14T16:12:35;3.40;;;3.10;;
823;SDS011;373;49.342;8.146;2023-06-14T16:15:02;4.72;;;3.38;;
823;SDS011;373;49.342;8.146;2023-06-14T16:17:29;3.97;;;2.80;;
823;SDS011;373;49.342;8.146;2023-06-14T16:19:56;3.17;;;2.83;;
823;SDS011;373;49.342;8.146;2023-06-14T16:22:23;3.13;;;2.90;;
823;SDS011;373;49.342;8.146;2023-06-14T16:24:51;4.07;;;2.90;;
823;SDS011;373;49.342;8.146;2023-06-14T16:27:19;4.88;;;3.25;;
823;SDS011;373;49.342;8.146;2023-06-14T16:29:46;3.70;;;3.17;;
823;SDS011;373;49.342;8.146;2023-06-14T16:32:14;3.78;;;3.47;;
823;SDS011;373;49.342;8.146;2023-06-14T16:34:41;3.22;;;3.00;;
823;SDS011;373;49.342;8.146;2023-06-14T16:37:08;3.50;;;3.20;;
823;SDS011;373;49.342;8.146;2023-06-14T16:39:35;2.88;;;2.67;;
823;SDS011;373;49.342;8.146;2023-06-14T16:42:02;3.38;;;2.83;;
823;SDS011;373;49.342;8.146;2023-06-14T16:44:31;3.20;;;2.78;;
823;SDS011;373;49.342;8.146;2023-06-14T16:46:58;3.70;;;3.33;;
823;SDS011;373;49.342;8.146;2023-06-14T16:49:27;3.20;;;2.85;;
823;SDS011;373;49.342;8.146;2023-06-14T16:51:54;5.03;;;3.38;;
823;SDS011;373;49.342;8.146;2023-06-14T16:54:21;5.32;;;2.97;;